createdAt,value
2023-04-30T00:01:13.232Z,4.07
2023-04-30T00:04:00.369Z,4.43
2023-04-30T00:06:47.575Z,4.40
2023-04-30T00:09:34.843Z,4.07
2023-04-30T00:12:21.985Z,4.20
2023-04-30T00:15:09.493Z,4.10
2023-04-30T00:17:56.662Z,4.67
2023-04-30T00:20:43.846Z,4.87
2023-04-30T00:23:30.845Z,4.90
2023-04-30T00:26:17.825Z,5.00
2023-04-30T00:29:08.376Z,4.70
2023-04-30T00:31:55.439Z,4.53
2023-04-30T00:34:42.526Z,4.73
2023-04-30T00:37:29.680Z,4.43
2023-04-30T00:40:16.740Z,4.60
2023-04-30T00:43:03.858Z,4.60
2023-04-30T00:45:50.836Z,4.83
2023-04-30T00:48:38.057Z,4.80
2023-04-30T00:51:25.374Z,4.73
2023-04-30T00:54:12.771Z,4.60
2023-04-30T00:57:00.060Z,4.20
2023-04-30T00:59:47.437Z,4.53
2023-04-30T01:02:34.782Z,4.60
2023-04-30T01:05:23.010Z,4.20
2023-04-30T01:08:11.699Z,4.97
2023-04-30T01:11:10.741Z,4.50
2023-04-30T01:14:19.482Z,4.30
2023-04-30T01:17:29.644Z,4.07
2023-04-30T01:20:17.118Z,4.63
2023-04-30T01:23:10.080Z,4.97
2023-04-30T01:26:12.862Z,4.37
2023-04-30T01:29:02.838Z,4.60
2023-04-30T01:31:49.898Z,4.20
2023-04-30T01:34:37.474Z,4.43
2023-04-30T01:37:36.500Z,4.40
2023-04-30T01:40:36.037Z,4.20
2023-04-30T01:43:40.018Z,4.40
2023-04-30T01:46:30.226Z,4.73
2023-04-30T01:49:37.018Z,4.47
2023-04-30T01:52:39.613Z,4.27
2023-04-30T01:55:53.913Z,4.57
2023-04-30T01:58:41.356Z,4.50
2023-04-30T02:01:31.048Z,3.93
2023-04-30T02:04:18.134Z,4.20
2023-04-30T02:07:05.962Z,4.33
2023-04-30T02:09:53.166Z,4.03
2023-04-30T02:12:40.993Z,4.07
2023-04-30T02:15:28.025Z,4.20
2023-04-30T02:18:15.059Z,4.87
2023-04-30T02:21:02.158Z,3.97
2023-04-30T02:23:49.330Z,3.47
2023-04-30T02:26:36.314Z,3.87
2023-04-30T02:29:23.436Z,4.60
2023-04-30T02:32:10.467Z,4.63
2023-04-30T02:34:57.717Z,4.23
2023-04-30T02:37:44.812Z,3.93
2023-04-30T02:40:32.031Z,4.00
2023-04-30T02:43:19.101Z,4.50
2023-04-30T02:46:06.571Z,4.73
2023-04-30T02:48:53.663Z,4.00
2023-04-30T02:51:40.805Z,4.27
2023-04-30T02:54:27.845Z,3.90
2023-04-30T02:57:14.885Z,4.00
2023-04-30T03:00:02.269Z,3.80
2023-04-30T03:02:49.475Z,4.10
2023-04-30T03:05:36.702Z,4.07
2023-04-30T03:08:23.877Z,4.07
2023-04-30T03:11:10.932Z,4.10
2023-04-30T03:13:58.023Z,4.13
2023-04-30T03:16:45.642Z,4.20
2023-04-30T03:19:32.967Z,4.10
2023-04-30T03:22:23.602Z,3.87
2023-04-30T03:25:11.036Z,4.00
2023-04-30T03:27:58.595Z,4.20
2023-04-30T03:30:46.687Z,4.30
2023-04-30T03:33:34.873Z,4.40
2023-04-30T03:36:22.347Z,4.17
2023-04-30T03:39:09.916Z,4.03
2023-04-30T03:41:56.957Z,3.67
2023-04-30T03:44:44.009Z,3.47
2023-04-30T03:47:31.152Z,4.33
2023-04-30T03:50:19.013Z,4.43
2023-04-30T03:53:06.335Z,4.03
2023-04-30T03:55:54.493Z,4.47
2023-04-30T03:58:41.992Z,4.13
2023-04-30T04:01:30.094Z,4.13
2023-04-30T04:04:17.833Z,4.07
2023-04-30T04:07:07.776Z,4.00
2023-04-30T04:09:55.366Z,4.20
2023-04-30T04:12:42.583Z,3.80
2023-04-30T04:15:29.602Z,3.70
2023-04-30T04:18:16.870Z,4.93
2023-04-30T04:21:04.304Z,3.80
2023-04-30T04:23:51.764Z,4.37
2023-04-30T04:26:38.880Z,4.47
2023-04-30T04:29:25.999Z,4.00
2023-04-30T04:32:14.556Z,4.47
2023-04-30T04:35:02.699Z,4.87
2023-04-30T04:37:49.930Z,4.83
2023-04-30T04:40:38.328Z,4.23
2023-04-30T04:43:26.127Z,4.50
2023-04-30T04:46:16.512Z,4.77
2023-04-30T04:49:03.755Z,4.33
2023-04-30T04:51:50.797Z,4.33
2023-04-30T04:54:37.799Z,4.63
2023-04-30T04:57:26.732Z,4.53
2023-04-30T05:00:14.184Z,4.77
2023-04-30T05:03:02.221Z,4.60
2023-04-30T05:05:49.584Z,4.77
2023-04-30T05:08:36.923Z,4.73
2023-04-30T05:11:24.229Z,4.77
2023-04-30T05:14:12.323Z,5.37
2023-04-30T05:16:59.387Z,4.90
2023-04-30T05:19:47.635Z,4.33
2023-04-30T05:22:34.817Z,5.37
2023-04-30T05:25:21.910Z,4.87
2023-04-30T05:28:09.136Z,5.30
2023-04-30T05:30:56.201Z,4.90
2023-04-30T05:33:43.182Z,5.23
2023-04-30T05:36:30.894Z,5.00
2023-04-30T05:39:17.928Z,5.10
2023-04-30T05:42:04.994Z,5.10
2023-04-30T05:44:52.158Z,4.40
2023-04-30T05:47:39.185Z,5.53
2023-04-30T05:50:26.290Z,5.50
2023-04-30T05:53:14.064Z,5.20
2023-04-30T05:56:01.170Z,6.00
2023-04-30T05:58:48.178Z,5.53
2023-04-30T06:01:35.573Z,5.33
2023-04-30T06:04:22.683Z,5.37
2023-04-30T06:07:09.795Z,5.27
2023-04-30T06:09:56.997Z,6.40
2023-04-30T06:12:44.268Z,5.77
2023-04-30T06:15:31.302Z,5.50
2023-04-30T06:18:18.306Z,5.00
2023-04-30T06:21:05.358Z,5.20
2023-04-30T06:23:53.008Z,5.93
2023-04-30T06:26:40.019Z,6.03
2023-04-30T06:29:27.105Z,5.97
2023-04-30T06:32:14.125Z,5.63
2023-04-30T06:35:01.223Z,5.80
2023-04-30T06:37:48.389Z,6.37
2023-04-30T06:40:35.934Z,6.10
2023-04-30T06:43:23.206Z,6.30
2023-04-30T06:46:10.497Z,5.60
2023-04-30T06:48:57.600Z,5.73
2023-04-30T06:51:44.648Z,6.00
2023-04-30T06:54:31.686Z,6.00
2023-04-30T06:57:18.653Z,5.93
2023-04-30T07:00:07.135Z,6.77
2023-04-30T07:02:54.302Z,5.90
2023-04-30T07:05:41.647Z,7.00
2023-04-30T07:08:28.620Z,6.73
2023-04-30T07:11:15.625Z,6.17
2023-04-30T07:14:02.642Z,6.20
2023-04-30T07:16:53.414Z,5.77
2023-04-30T07:19:40.457Z,6.20
2023-04-30T07:22:27.820Z,6.50
2023-04-30T07:25:15.461Z,5.80
2023-04-30T07:28:02.537Z,5.83
2023-04-30T07:30:49.572Z,5.50
2023-04-30T07:33:36.977Z,6.63
2023-04-30T07:36:24.097Z,6.03
2023-04-30T07:39:11.848Z,5.27
2023-04-30T07:41:59.079Z,5.60
2023-04-30T07:44:46.312Z,5.80
2023-04-30T07:47:33.517Z,5.40
2023-04-30T07:50:20.534Z,5.87
2023-04-30T07:53:09.438Z,6.10
2023-04-30T07:55:56.442Z,5.50
2023-04-30T07:58:43.744Z,5.20
2023-04-30T08:01:30.822Z,4.97
2023-04-30T08:04:17.862Z,5.60
2023-04-30T08:07:04.923Z,5.47
2023-04-30T08:09:52.124Z,5.40
2023-04-30T08:12:39.344Z,5.80
2023-04-30T08:15:27.596Z,4.63
2023-04-30T08:18:16.339Z,4.70
2023-04-30T08:21:03.548Z,4.50
2023-04-30T08:23:50.677Z,4.30
2023-04-30T08:26:37.682Z,4.17
2023-04-30T08:29:24.730Z,4.70
2023-04-30T08:32:12.071Z,4.70
2023-04-30T08:34:59.185Z,4.60
2023-04-30T08:37:46.264Z,4.37
2023-04-30T08:40:50.102Z,4.60
2023-04-30T08:43:38.911Z,4.50
2023-04-30T08:46:26.835Z,4.20
2023-04-30T08:49:13.870Z,4.63
2023-04-30T08:52:01.167Z,4.23
2023-04-30T08:54:48.707Z,4.17
2023-04-30T08:57:36.969Z,4.60
2023-04-30T09:00:24.024Z,4.27
2023-04-30T09:03:11.285Z,4.17
2023-04-30T09:05:58.434Z,4.23
2023-04-30T09:08:47.538Z,4.10
2023-04-30T09:11:34.562Z,3.00
2023-04-30T09:14:25.890Z,3.50
2023-04-30T09:17:22.929Z,3.30
2023-04-30T09:20:11.906Z,4.23
2023-04-30T09:23:07.498Z,4.00
2023-04-30T09:25:54.709Z,4.63
2023-04-30T09:28:55.438Z,4.50
2023-04-30T09:31:47.196Z,4.87
2023-04-30T09:34:35.736Z,4.33
2023-04-30T09:37:34.745Z,3.93
2023-04-30T09:40:33.406Z,3.87
2023-04-30T09:43:20.586Z,4.03
2023-04-30T09:46:07.634Z,3.97
2023-04-30T09:48:59.611Z,3.80
2023-04-30T09:51:57.199Z,4.23
2023-04-30T09:54:46.049Z,3.60
2023-04-30T09:57:36.272Z,3.50
2023-04-30T10:00:23.726Z,3.67
2023-04-30T10:03:12.894Z,3.53
2023-04-30T10:06:00.934Z,3.93
2023-04-30T10:08:53.320Z,3.70
2023-04-30T10:11:42.319Z,3.70
2023-04-30T10:14:34.240Z,3.40
2023-04-30T10:17:26.910Z,2.83
2023-04-30T10:20:15.501Z,2.87
2023-04-30T10:23:02.874Z,3.10
2023-04-30T10:25:51.199Z,3.67
2023-04-30T10:28:38.561Z,2.83
2023-04-30T10:31:26.223Z,2.57
2023-04-30T10:34:31.977Z,2.73
2023-04-30T10:37:31.368Z,2.87
2023-04-30T10:40:19.313Z,2.87
2023-04-30T10:43:06.396Z,2.50
2023-04-30T10:45:53.818Z,2.80
2023-04-30T10:48:40.957Z,2.90
2023-04-30T10:51:48.414Z,3.03
2023-04-30T10:54:38.958Z,3.23
2023-04-30T10:57:29.652Z,3.20
2023-04-30T11:00:24.556Z,3.07
2023-04-30T11:03:11.628Z,3.37
2023-04-30T11:06:03.857Z,3.20
2023-04-30T11:08:50.944Z,2.90
2023-04-30T11:11:38.012Z,2.80
2023-04-30T11:14:25.151Z,2.63
2023-04-30T11:17:21.621Z,2.77
2023-04-30T11:20:13.472Z,2.73
2023-04-30T11:23:11.051Z,2.63
2023-04-30T11:26:01.151Z,2.70
2023-04-30T11:28:54.368Z,2.50
2023-04-30T11:31:41.771Z,2.53
2023-04-30T11:34:29.299Z,2.30
2023-04-30T11:37:20.930Z,2.07
2023-04-30T11:40:13.074Z,2.37
2023-04-30T11:43:00.318Z,1.67
2023-04-30T11:46:05.202Z,1.90
2023-04-30T11:48:52.745Z,2.20
2023-04-30T11:51:41.254Z,1.83
2023-04-30T11:54:32.313Z,1.83
2023-04-30T11:57:19.295Z,2.10
2023-04-30T12:00:16.650Z,2.13
2023-04-30T12:03:04.620Z,1.93
2023-04-30T12:05:51.890Z,2.20
2023-04-30T12:08:41.551Z,2.67
2023-04-30T12:11:30.552Z,2.20
2023-04-30T12:14:17.565Z,2.23
2023-04-30T12:17:04.672Z,1.97
2023-04-30T12:19:51.758Z,2.20
2023-04-30T12:22:39.929Z,2.20
2023-04-30T12:25:29.549Z,2.20
2023-04-30T12:28:16.758Z,1.87
2023-04-30T12:31:06.530Z,1.73
2023-04-30T12:33:55.061Z,1.83
2023-04-30T12:36:45.258Z,2.17
2023-04-30T12:39:34.017Z,2.00
2023-04-30T12:42:21.235Z,2.30
2023-04-30T12:45:08.939Z,2.00
2023-04-30T12:47:56.052Z,1.93
2023-04-30T12:50:47.292Z,3.30
2023-04-30T12:53:34.388Z,1.97
2023-04-30T12:56:22.335Z,1.90
2023-04-30T12:59:16.979Z,1.67
2023-04-30T13:02:08.734Z,2.23
2023-04-30T13:04:56.856Z,2.00
2023-04-30T13:07:43.959Z,2.00
2023-04-30T13:10:31.338Z,1.83
2023-04-30T13:13:20.205Z,1.83
2023-04-30T13:16:07.430Z,2.40
2023-04-30T13:18:54.849Z,1.57
2023-04-30T13:21:42.019Z,1.47
2023-04-30T13:24:28.993Z,1.80
2023-04-30T13:27:16.377Z,1.97
2023-04-30T13:30:04.174Z,1.80
2023-04-30T13:32:52.177Z,1.93
2023-04-30T13:35:39.449Z,2.43
2023-04-30T13:38:26.429Z,1.90
2023-04-30T13:41:13.643Z,1.93
2023-04-30T13:44:00.632Z,1.97
2023-04-30T13:46:47.773Z,1.90
2023-04-30T13:49:37.772Z,2.10
2023-04-30T13:52:24.751Z,2.17
2023-04-30T13:55:12.013Z,2.30
2023-04-30T13:57:59.014Z,2.33
2023-04-30T14:00:46.225Z,1.73
2023-04-30T14:03:33.791Z,1.60
2023-04-30T14:06:21.030Z,1.60
2023-04-30T14:09:08.229Z,1.60
2023-04-30T14:11:58.979Z,1.53
2023-04-30T14:14:46.086Z,1.90
2023-04-30T14:17:33.134Z,1.80
2023-04-30T14:20:20.386Z,1.93
2023-04-30T14:23:08.623Z,1.77
2023-04-30T14:25:56.458Z,2.00
2023-04-30T14:28:43.531Z,1.80
2023-04-30T14:31:30.590Z,2.83
2023-04-30T14:34:17.589Z,1.87
2023-04-30T14:37:05.233Z,1.80
2023-04-30T14:39:52.751Z,1.60
2023-04-30T14:42:40.277Z,1.80
2023-04-30T14:45:29.071Z,1.70
2023-04-30T14:48:16.168Z,1.57
2023-04-30T14:51:03.805Z,1.47
2023-04-30T14:53:50.878Z,1.87
2023-04-30T14:56:37.938Z,2.27
2023-04-30T14:59:24.974Z,2.77
2023-04-30T15:02:12.012Z,4.00
2023-04-30T15:04:59.043Z,4.20
2023-04-30T15:07:45.976Z,4.37
2023-04-30T15:10:33.003Z,4.40
2023-04-30T15:13:20.022Z,3.13
2023-04-30T15:16:07.489Z,7.90
2023-04-30T15:18:54.562Z,7.67
2023-04-30T15:21:41.578Z,7.67
2023-04-30T15:24:28.654Z,11.17
2023-04-30T15:27:15.664Z,8.60
2023-04-30T15:30:03.684Z,2.93
2023-04-30T15:32:50.953Z,1.70
2023-04-30T15:35:38.121Z,2.80
2023-04-30T15:38:25.165Z,1.97
2023-04-30T15:41:12.174Z,1.70
2023-04-30T15:43:59.136Z,1.87
2023-04-30T15:46:46.308Z,1.80
2023-04-30T15:49:33.387Z,1.70
2023-04-30T15:52:20.597Z,2.20
2023-04-30T15:55:08.738Z,2.23
2023-04-30T15:57:55.692Z,1.80
2023-04-30T16:00:43.582Z,1.67
2023-04-30T16:03:31.557Z,1.70
2023-04-30T16:06:19.395Z,1.70
2023-04-30T16:09:08.381Z,1.77
2023-04-30T16:11:56.294Z,1.90
2023-04-30T16:14:43.276Z,2.07
2023-04-30T16:17:32.552Z,2.20
2023-04-30T16:20:20.462Z,1.83
2023-04-30T16:23:08.546Z,2.23
2023-04-30T16:25:56.505Z,1.70
2023-04-30T16:28:45.368Z,2.00
2023-04-30T16:31:32.754Z,2.30
2023-04-30T16:34:19.926Z,1.60
2023-04-30T16:37:07.060Z,1.87
2023-04-30T16:39:54.599Z,1.70
2023-04-30T16:42:41.770Z,1.90
2023-04-30T16:45:30.304Z,2.20
2023-04-30T16:48:17.659Z,2.53
2023-04-30T16:51:05.358Z,1.67
2023-04-30T16:53:52.443Z,2.07
2023-04-30T16:56:39.446Z,1.93
2023-04-30T16:59:27.048Z,1.40
2023-04-30T17:02:14.107Z,2.10
2023-04-30T17:05:01.182Z,1.60
2023-04-30T17:07:49.383Z,2.00
2023-04-30T17:10:38.357Z,2.13
2023-04-30T17:13:25.940Z,2.30
2023-04-30T17:16:13.365Z,2.00
2023-04-30T17:19:00.597Z,1.70
2023-04-30T17:21:47.607Z,2.80
2023-04-30T17:24:35.068Z,2.70
2023-04-30T17:27:22.087Z,2.70
2023-04-30T17:30:09.792Z,2.53
2023-04-30T17:32:56.940Z,1.87
2023-04-30T17:35:43.983Z,2.20
2023-04-30T17:38:30.970Z,2.03
2023-04-30T17:41:18.565Z,1.73
2023-04-30T17:44:05.701Z,2.03
2023-04-30T17:46:53.024Z,1.90
2023-04-30T17:49:40.106Z,1.80
2023-04-30T17:52:27.272Z,1.60
2023-04-30T17:55:14.360Z,2.10
2023-04-30T17:58:01.671Z,2.13
2023-04-30T18:00:49.148Z,2.03
2023-04-30T18:03:36.569Z,2.17
2023-04-30T18:06:23.903Z,2.30
2023-04-30T18:09:10.957Z,1.87
2023-04-30T18:11:59.492Z,1.90
2023-04-30T18:14:47.140Z,1.97
2023-04-30T18:17:37.061Z,2.30
2023-04-30T18:20:24.700Z,2.40
2023-04-30T18:23:13.420Z,1.60
2023-04-30T18:26:02.453Z,1.90
2023-04-30T18:28:49.633Z,1.70
2023-04-30T18:31:37.313Z,1.43
2023-04-30T18:34:24.526Z,1.97
2023-04-30T18:37:11.622Z,1.70
2023-04-30T18:39:59.330Z,2.07
2023-04-30T18:42:46.665Z,1.70
2023-04-30T18:45:33.753Z,2.03
2023-04-30T18:48:22.912Z,1.70
2023-04-30T18:51:09.976Z,2.30
2023-04-30T18:53:57.282Z,1.70
2023-04-30T18:56:45.179Z,1.80
2023-04-30T18:59:32.366Z,1.60
2023-04-30T19:02:21.811Z,1.80
2023-04-30T19:05:08.959Z,1.90
2023-04-30T19:07:55.923Z,2.03
2023-04-30T19:10:42.932Z,1.73
2023-04-30T19:13:29.953Z,1.73
2023-04-30T19:16:17.911Z,1.37
2023-04-30T19:19:04.909Z,1.93
2023-04-30T19:21:53.411Z,1.73
2023-04-30T19:24:40.748Z,1.60
2023-04-30T19:27:27.880Z,1.90
2023-04-30T19:30:15.201Z,1.77
2023-04-30T19:33:02.404Z,1.97
2023-04-30T19:35:51.261Z,1.80
2023-04-30T19:38:38.255Z,1.77
2023-04-30T19:41:25.993Z,1.90
2023-04-30T19:44:13.153Z,2.07
2023-04-30T19:47:00.259Z,2.07
2023-04-30T19:49:47.464Z,2.17
2023-04-30T19:52:34.476Z,2.07
2023-04-30T19:55:21.455Z,2.00
2023-04-30T19:58:08.500Z,2.20
2023-04-30T20:00:55.932Z,1.90
2023-04-30T20:03:43.508Z,2.03
2023-04-30T20:06:31.608Z,2.20
2023-04-30T20:09:18.780Z,1.90
2023-04-30T20:12:05.904Z,2.30
2023-04-30T20:14:52.897Z,2.00
2023-04-30T20:17:40.126Z,2.50
2023-04-30T20:20:29.270Z,2.33
2023-04-30T20:23:17.715Z,2.27
2023-04-30T20:26:04.891Z,2.03
2023-04-30T20:28:51.993Z,2.57
2023-04-30T20:31:39.131Z,2.50
2023-04-30T20:34:26.190Z,2.37
2023-04-30T20:37:13.149Z,2.20
2023-04-30T20:40:01.011Z,3.00
2023-04-30T20:42:48.028Z,2.90
2023-04-30T20:45:35.186Z,2.33
2023-04-30T20:48:22.289Z,2.40
2023-04-30T20:51:10.322Z,2.47
2023-04-30T20:53:57.362Z,3.00
2023-04-30T20:56:46.762Z,2.90
2023-04-30T20:59:37.417Z,2.77
2023-04-30T21:02:24.454Z,2.27
2023-04-30T21:05:11.661Z,2.53
2023-04-30T21:08:01.300Z,3.23
2023-04-30T21:10:50.522Z,3.27
2023-04-30T21:13:37.622Z,3.33
2023-04-30T21:16:25.262Z,2.70
2023-04-30T21:19:12.575Z,3.20
2023-04-30T21:21:59.929Z,3.13
2023-04-30T21:24:46.929Z,2.93
2023-04-30T21:27:34.036Z,3.00
2023-04-30T21:30:24.240Z,3.50
2023-04-30T21:33:12.980Z,3.47
2023-04-30T21:36:00.189Z,3.37
2023-04-30T21:38:47.378Z,2.63
2023-04-30T21:41:34.504Z,3.17
2023-04-30T21:44:21.867Z,2.93
2023-04-30T21:47:08.832Z,2.63
2023-04-30T21:49:56.042Z,2.80
2023-04-30T21:52:43.457Z,3.07
2023-04-30T21:55:31.022Z,2.53
2023-04-30T21:58:18.158Z,2.77
2023-04-30T22:01:05.662Z,2.77
2023-04-30T22:03:53.351Z,3.60
2023-04-30T22:06:40.479Z,3.73
2023-04-30T22:09:27.517Z,3.00
2023-04-30T22:12:14.918Z,3.10
2023-04-30T22:15:03.420Z,2.70
2023-04-30T22:17:50.888Z,2.93
2023-04-30T22:20:37.942Z,3.03
2023-04-30T22:23:24.917Z,3.07
2023-04-30T22:26:11.890Z,2.90
2023-04-30T22:28:58.999Z,2.83
2023-04-30T22:31:46.202Z,3.07
2023-04-30T22:34:39.038Z,2.70
2023-04-30T22:37:26.389Z,3.03
2023-04-30T22:40:13.598Z,3.30
2023-04-30T22:43:01.128Z,3.10
2023-04-30T22:45:48.529Z,3.10
2023-04-30T22:48:35.504Z,3.30
2023-04-30T22:51:22.729Z,3.27
2023-04-30T22:54:09.879Z,3.30
2023-04-30T22:56:58.181Z,3.43
2023-04-30T22:59:45.178Z,3.03
2023-04-30T23:02:32.299Z,3.67
2023-04-30T23:05:19.325Z,3.70
2023-04-30T23:08:06.358Z,3.07
2023-04-30T23:10:55.525Z,3.07
2023-04-30T23:13:42.681Z,3.03
2023-04-30T23:16:29.704Z,3.03
2023-04-30T23:19:16.848Z,3.13
2023-04-30T23:22:04.322Z,3.30
2023-04-30T23:24:51.794Z,2.70
2023-04-30T23:27:38.788Z,2.63
2023-04-30T23:30:25.860Z,3.77
2023-04-30T23:33:12.965Z,3.40
2023-04-30T23:36:00.015Z,3.23
2023-04-30T23:38:47.227Z,3.40
2023-04-30T23:41:34.359Z,2.70
2023-04-30T23:44:21.731Z,2.77
2023-04-30T23:47:08.736Z,3.20
2023-04-30T23:49:55.925Z,2.77
2023-04-30T23:52:44.105Z,2.60
2023-04-30T23:55:31.068Z,3.00
2023-04-30T23:58:18.076Z,2.93
